createdAt,value
2023-05-24T00:02:50.147Z,1.98
2023-05-24T00:05:55.277Z,1.50
2023-05-24T00:08:59.827Z,1.40
2023-05-24T00:12:04.589Z,1.33
2023-05-24T00:15:09.457Z,1.50
2023-05-24T00:18:14.242Z,1.40
2023-05-24T00:21:18.938Z,1.63
2023-05-24T00:24:23.305Z,1.90
2023-05-24T00:27:27.594Z,1.20
2023-05-24T00:30:31.907Z,1.58
2023-05-24T00:33:36.544Z,1.40
2023-05-24T00:36:41.030Z,1.55
2023-05-24T00:39:46.525Z,1.38
2023-05-24T00:42:51.005Z,1.25
2023-05-24T00:46:32.267Z,1.48
2023-05-24T00:49:37.111Z,1.80
2023-05-24T00:52:42.855Z,1.42
2023-05-24T00:55:49.594Z,1.38
2023-05-24T00:58:55.982Z,1.80
2023-05-24T01:02:00.633Z,1.73
2023-05-24T01:05:06.219Z,1.65
2023-05-24T01:08:39.677Z,1.52
2023-05-24T01:12:02.152Z,1.42
2023-05-24T01:15:15.824Z,1.38
2023-05-24T01:18:39.290Z,1.40
2023-05-24T01:22:34.336Z,1.53
2023-05-24T01:29:03.485Z,1.95
2023-05-24T01:32:08.922Z,1.35
2023-05-24T01:35:13.518Z,1.48
2023-05-24T01:38:17.970Z,2.33
2023-05-24T01:41:56.899Z,1.63
2023-05-24T01:45:38.672Z,1.33
2023-05-24T01:49:06.741Z,1.55
2023-05-24T01:52:19.518Z,1.27
2023-05-24T01:55:26.033Z,1.40
2023-05-24T01:58:31.320Z,1.45
2023-05-24T02:01:36.082Z,1.42
2023-05-24T02:04:40.757Z,1.38
2023-05-24T02:07:46.167Z,2.20
2023-05-24T02:10:50.628Z,1.67
2023-05-24T02:13:56.283Z,1.60
2023-05-24T02:17:00.779Z,1.80
2023-05-24T02:20:07.024Z,1.77
2023-05-24T02:23:11.304Z,1.40
2023-05-24T02:26:17.793Z,1.30
2023-05-24T02:29:23.153Z,1.40
2023-05-24T02:32:27.818Z,1.35
2023-05-24T02:35:33.603Z,1.67
2023-05-24T02:38:38.367Z,1.42
2023-05-24T02:41:43.095Z,1.60
2023-05-24T02:44:49.118Z,1.80
2023-05-24T02:47:53.446Z,1.50
2023-05-24T02:50:58.062Z,1.50
2023-05-24T02:54:03.270Z,1.20
2023-05-24T02:57:08.207Z,1.73
2023-05-24T03:00:14.026Z,1.13
2023-05-24T03:03:22.825Z,1.50
2023-05-24T03:06:27.718Z,1.40
2023-05-24T03:09:32.624Z,1.35
2023-05-24T03:12:37.291Z,1.42
2023-05-24T03:15:42.957Z,1.60
2023-05-24T03:18:50.555Z,1.52
2023-05-24T03:21:55.472Z,1.60
2023-05-24T03:25:01.796Z,1.70
2023-05-24T03:28:07.456Z,1.50
2023-05-24T03:31:17.289Z,1.73
2023-05-24T03:34:24.908Z,1.27
2023-05-24T03:37:29.831Z,1.65
2023-05-24T03:40:34.699Z,1.42
2023-05-24T03:43:45.969Z,1.67
2023-05-24T03:46:53.938Z,1.77
2023-05-24T03:49:58.680Z,1.35
2023-05-24T03:53:03.702Z,1.63
2023-05-24T03:56:08.390Z,1.80
2023-05-24T03:59:13.052Z,1.10
2023-05-24T04:02:17.649Z,1.65
2023-05-24T04:05:27.167Z,1.60
2023-05-24T04:08:32.130Z,1.75
2023-05-24T04:11:37.350Z,1.83
2023-05-24T04:14:42.358Z,1.58
2023-05-24T04:19:04.364Z,1.67
2023-05-24T04:22:09.138Z,1.20
2023-05-24T04:25:15.343Z,1.38
2023-05-24T04:28:22.410Z,1.50
2023-05-24T04:31:29.623Z,1.23
2023-05-24T04:34:34.105Z,1.42
2023-05-24T04:37:40.413Z,1.92
2023-05-24T04:40:45.356Z,1.73
2023-05-24T04:43:50.651Z,1.17
2023-05-24T04:46:55.539Z,1.60
2023-05-24T04:50:00.374Z,1.40
2023-05-24T04:53:05.700Z,1.70
2023-05-24T04:56:10.195Z,1.23
2023-05-24T04:59:15.188Z,2.05
2023-05-24T05:02:20.376Z,1.77
2023-05-24T05:05:27.341Z,1.65
2023-05-24T05:08:31.922Z,1.60
2023-05-24T05:11:37.592Z,1.45
2023-05-24T05:14:42.488Z,1.83
2023-05-24T05:17:47.360Z,1.85
2023-05-24T05:20:52.462Z,2.15
2023-05-24T05:23:57.324Z,1.80
2023-05-24T05:27:02.134Z,2.80
2023-05-24T05:30:08.492Z,2.35
2023-05-24T05:33:13.487Z,1.77
2023-05-24T05:36:18.812Z,2.08
2023-05-24T05:39:23.623Z,1.92
2023-05-24T05:42:28.507Z,1.92
2023-05-24T05:45:33.385Z,1.65
2023-05-24T05:48:38.224Z,2.03
2023-05-24T05:51:42.862Z,2.33
2023-05-24T05:54:47.503Z,1.80
2023-05-24T05:57:52.189Z,1.92
2023-05-24T06:00:57.110Z,1.85
2023-05-24T06:04:02.256Z,2.45
2023-05-24T06:07:07.321Z,2.00
2023-05-24T06:10:39.546Z,2.33
2023-05-24T06:13:52.038Z,2.60
2023-05-24T06:17:30.328Z,1.80
2023-05-24T06:20:35.106Z,2.03
2023-05-24T06:23:39.712Z,2.40
2023-05-24T06:26:44.445Z,2.30
2023-05-24T06:29:49.174Z,2.33
2023-05-24T06:32:54.010Z,1.90
2023-05-24T06:35:59.063Z,2.30
2023-05-24T06:39:04.617Z,1.77
2023-05-24T06:42:09.405Z,2.35
2023-05-24T06:45:16.738Z,2.22
2023-05-24T06:48:21.481Z,2.13
2023-05-24T06:51:26.188Z,2.55
2023-05-24T06:54:30.930Z,2.30
2023-05-24T06:57:35.880Z,2.25
2023-05-24T07:00:46.057Z,2.70
2023-05-24T07:03:51.741Z,2.10
2023-05-24T07:06:57.213Z,2.03
2023-05-24T07:10:02.221Z,1.95
2023-05-24T07:13:06.877Z,2.00
2023-05-24T07:16:11.863Z,2.15
2023-05-24T07:19:17.028Z,2.35
2023-05-24T07:22:22.860Z,2.90
2023-05-24T07:25:27.672Z,2.17
2023-05-24T07:28:32.695Z,2.30
2023-05-24T07:31:38.278Z,2.15
2023-05-24T07:34:44.182Z,2.20
2023-05-24T07:37:49.045Z,2.15
2023-05-24T07:40:53.986Z,2.30
2023-05-24T07:43:58.447Z,2.10
2023-05-24T07:47:03.240Z,3.00
2023-05-24T07:50:08.911Z,2.15
2023-05-24T07:53:13.592Z,2.13
2023-05-24T07:56:18.729Z,2.42
2023-05-24T07:59:23.991Z,2.47
2023-05-24T08:02:29.026Z,2.03
2023-05-24T08:05:34.739Z,2.08
2023-05-24T08:08:41.093Z,2.75
2023-05-24T08:11:45.963Z,2.53
2023-05-24T08:14:50.543Z,2.95
2023-05-24T08:17:54.965Z,1.95
2023-05-24T08:20:59.872Z,2.40
2023-05-24T08:24:06.826Z,1.95
2023-05-24T08:27:14.853Z,1.70
2023-05-24T08:30:20.083Z,2.00
2023-05-24T08:33:25.175Z,2.08
2023-05-24T08:36:29.570Z,2.30
2023-05-24T08:39:34.306Z,2.20
2023-05-24T08:42:41.032Z,3.60
2023-05-24T08:45:46.171Z,2.65
2023-05-24T08:48:52.893Z,2.42
2023-05-24T08:51:57.857Z,2.53
2023-05-24T08:55:05.738Z,2.30
2023-05-24T08:58:11.241Z,2.58
2023-05-24T09:01:17.631Z,2.33
2023-05-24T09:04:24.115Z,2.28
2023-05-24T09:07:32.400Z,2.15
2023-05-24T09:10:53.044Z,1.90
2023-05-24T09:14:00.396Z,1.90
2023-05-24T09:17:05.385Z,1.88
2023-05-24T09:20:11.997Z,1.38
2023-05-24T09:23:17.722Z,2.35
2023-05-24T09:26:22.629Z,2.22
2023-05-24T09:29:27.453Z,2.38
2023-05-24T09:32:33.323Z,2.50
2023-05-24T09:35:42.172Z,2.60
2023-05-24T09:38:47.012Z,2.60
2023-05-24T09:41:57.965Z,2.28
2023-05-24T09:45:09.657Z,2.15
2023-05-24T09:48:17.716Z,2.30
2023-05-24T09:51:23.163Z,2.42
2023-05-24T09:54:27.991Z,2.40
2023-05-24T09:57:32.732Z,2.03
2023-05-24T10:00:41.793Z,2.63
2023-05-24T10:03:59.291Z,2.33
2023-05-24T10:07:06.053Z,2.92
2023-05-24T10:10:11.156Z,2.90
2023-05-24T10:13:17.759Z,2.55
2023-05-24T10:16:22.313Z,2.00
2023-05-24T10:19:27.236Z,2.30
2023-05-24T10:22:36.600Z,2.28
2023-05-24T10:25:50.178Z,1.98
2023-05-24T10:30:11.379Z,2.47
2023-05-24T10:33:18.981Z,2.28
2023-05-24T10:36:26.263Z,1.77
2023-05-24T10:39:33.785Z,1.95
2023-05-24T10:42:39.666Z,1.95
2023-05-24T10:45:49.947Z,2.88
2023-05-24T10:49:06.650Z,2.30
2023-05-24T10:52:12.654Z,2.60
2023-05-24T10:55:20.423Z,2.97
2023-05-24T10:58:58.335Z,3.03
2023-05-24T11:02:06.325Z,2.33
2023-05-24T11:05:12.198Z,2.45
2023-05-24T11:08:43.679Z,2.28
2023-05-24T11:11:50.944Z,2.67
2023-05-24T11:14:55.527Z,2.45
2023-05-24T11:18:09.894Z,2.50
2023-05-24T11:21:14.618Z,2.42
2023-05-24T11:24:22.012Z,2.60
2023-05-24T11:27:27.265Z,2.20
2023-05-24T11:30:34.688Z,2.25
2023-05-24T11:33:42.623Z,2.60
2023-05-24T11:36:48.839Z,2.45
2023-05-24T11:39:53.638Z,2.17
2023-05-24T11:42:59.005Z,1.80
2023-05-24T11:46:03.958Z,2.35
2023-05-24T11:49:18.340Z,1.90
2023-05-24T11:52:23.212Z,2.47
2023-05-24T11:55:28.137Z,2.45
2023-05-24T11:58:48.594Z,2.35
2023-05-24T12:02:05.883Z,2.28
2023-05-24T12:05:12.562Z,2.50
2023-05-24T12:08:17.621Z,1.95
2023-05-24T12:11:22.477Z,2.20
2023-05-24T12:14:34.593Z,1.83
2023-05-24T12:17:39.662Z,2.40
2023-05-24T12:20:46.704Z,2.15
2023-05-24T12:23:52.425Z,1.77
2023-05-24T12:27:04.034Z,2.00
2023-05-24T12:30:10.175Z,2.38
2023-05-24T12:33:15.108Z,1.95
2023-05-24T12:36:20.103Z,2.33
2023-05-24T12:39:35.112Z,2.42
2023-05-24T12:42:40.070Z,2.75
2023-05-24T12:45:44.648Z,2.47
2023-05-24T12:48:49.957Z,2.45
2023-05-24T12:51:57.214Z,2.30
2023-05-24T12:55:02.666Z,2.08
2023-05-24T12:58:09.634Z,2.00
2023-05-24T13:01:14.353Z,2.40
2023-05-24T13:04:21.343Z,1.92
2023-05-24T13:07:25.922Z,2.17
2023-05-24T13:10:38.179Z,2.50
2023-05-24T13:13:44.555Z,2.60
2023-05-24T13:16:51.982Z,2.10
2023-05-24T13:19:59.378Z,2.80
2023-05-24T13:23:04.052Z,2.50
2023-05-24T13:26:09.258Z,2.35
2023-05-24T13:32:22.334Z,2.40
2023-05-24T13:35:28.973Z,2.13
2023-05-24T13:38:33.931Z,2.25
2023-05-24T13:41:41.637Z,2.22
2023-05-24T13:44:46.217Z,1.85
2023-05-24T13:47:52.924Z,2.80
2023-05-24T13:50:58.020Z,2.20
2023-05-24T13:54:03.342Z,2.53
2023-05-24T13:57:11.708Z,2.58
2023-05-24T14:00:17.910Z,2.00
2023-05-24T14:03:22.680Z,2.17
2023-05-24T14:06:27.422Z,2.10
2023-05-24T14:09:32.000Z,1.67
2023-05-24T14:12:36.965Z,2.28
2023-05-24T14:15:42.544Z,1.70
2023-05-24T14:18:49.258Z,2.03
2023-05-24T14:21:54.119Z,1.92
2023-05-24T14:25:01.785Z,2.08
2023-05-24T14:28:08.649Z,2.05
2023-05-24T14:31:13.640Z,1.92
2023-05-24T14:34:18.653Z,1.50
2023-05-24T14:37:23.335Z,2.13
2023-05-24T14:40:28.280Z,2.38
2023-05-24T14:43:35.380Z,1.98
2023-05-24T14:46:41.421Z,2.25
2023-05-24T14:49:45.765Z,2.67
2023-05-24T14:52:55.349Z,2.53
2023-05-24T14:56:00.276Z,2.40
2023-05-24T14:59:04.827Z,2.30
2023-05-24T15:02:14.530Z,2.38
2023-05-24T15:05:20.149Z,2.70
2023-05-24T15:08:24.786Z,2.53
2023-05-24T15:11:29.910Z,2.22
2023-05-24T15:14:34.598Z,2.40
2023-05-24T15:17:39.376Z,2.13
2023-05-24T15:20:44.165Z,2.45
2023-05-24T15:23:49.304Z,2.03
2023-05-24T15:26:54.011Z,2.40
2023-05-24T15:29:59.349Z,2.83
2023-05-24T15:33:04.110Z,2.75
2023-05-24T15:36:10.472Z,2.60
2023-05-24T15:39:15.415Z,2.63
2023-05-24T15:42:24.707Z,2.90
2023-05-24T15:45:29.438Z,2.10
2023-05-24T15:48:34.241Z,2.47
2023-05-24T15:54:46.540Z,2.75
2023-05-24T15:57:51.334Z,2.83
2023-05-24T16:00:56.348Z,2.40
2023-05-24T16:09:23.748Z,1.90
2023-05-24T16:12:32.992Z,2.20
2023-05-24T16:15:40.983Z,1.77
2023-05-24T16:18:46.011Z,2.63
2023-05-24T16:21:50.955Z,2.20
2023-05-24T16:24:55.975Z,2.20
2023-05-24T16:28:00.595Z,2.28
2023-05-24T16:31:05.619Z,2.10
2023-05-24T16:34:10.392Z,2.10
2023-05-24T16:37:15.472Z,2.70
2023-05-24T16:40:20.816Z,1.90
2023-05-24T16:43:26.019Z,2.40
2023-05-24T16:46:31.536Z,2.30
2023-05-24T16:49:36.178Z,1.95
2023-05-24T16:52:42.617Z,2.05
2023-05-24T16:55:47.324Z,1.80
2023-05-24T16:58:52.572Z,1.90
2023-05-24T17:01:56.854Z,1.88
2023-05-24T17:05:01.757Z,2.08
2023-05-24T17:08:07.075Z,1.70
2023-05-24T17:11:11.871Z,1.60
2023-05-24T17:14:16.716Z,1.90
2023-05-24T17:17:21.566Z,2.00
2023-05-24T17:20:26.612Z,2.13
2023-05-24T17:23:33.685Z,1.40
2023-05-24T17:26:39.841Z,2.20
2023-05-24T17:29:44.866Z,2.10
2023-05-24T17:32:49.952Z,2.00
2023-05-24T17:36:02.651Z,2.47
2023-05-24T17:39:07.784Z,2.45
2023-05-24T17:42:12.286Z,2.40
2023-05-24T17:45:17.118Z,2.42
2023-05-24T17:48:21.995Z,2.55
2023-05-24T17:51:26.935Z,2.35
2023-05-24T17:54:31.801Z,2.30
2023-05-24T17:57:36.430Z,2.13
2023-05-24T18:00:41.705Z,2.00
2023-05-24T18:03:46.963Z,2.15
2023-05-24T18:06:51.674Z,2.40
2023-05-24T18:09:57.605Z,1.88
2023-05-24T18:13:08.036Z,2.03
2023-05-24T18:16:13.664Z,2.20
2023-05-24T18:19:18.816Z,1.80
2023-05-24T18:22:23.543Z,1.80
2023-05-24T18:25:28.167Z,1.98
2023-05-24T18:28:37.414Z,1.58
2023-05-24T18:31:42.049Z,2.00
2023-05-24T18:34:46.566Z,2.05
2023-05-24T18:37:51.499Z,1.75
2023-05-24T18:40:56.174Z,2.10
2023-05-24T18:44:00.976Z,1.60
2023-05-24T18:47:06.078Z,1.95
2023-05-24T18:50:11.130Z,1.60
2023-05-24T18:53:16.019Z,1.60
2023-05-24T18:56:21.815Z,1.42
2023-05-24T18:59:29.277Z,2.00
2023-05-24T19:02:39.204Z,1.58
2023-05-24T19:05:44.643Z,1.60
2023-05-24T19:08:49.680Z,1.33
2023-05-24T19:11:59.099Z,1.40
2023-05-24T19:15:04.780Z,1.50
2023-05-24T19:18:10.042Z,1.73
2023-05-24T19:21:16.114Z,1.60
2023-05-24T19:24:24.065Z,1.70
2023-05-24T19:27:29.119Z,1.30
2023-05-24T19:30:34.140Z,1.73
2023-05-24T19:33:48.455Z,1.80
2023-05-24T19:37:03.290Z,1.42
2023-05-24T19:40:09.004Z,1.30
2023-05-24T19:43:13.695Z,1.70
2023-05-24T19:46:19.089Z,1.52
2023-05-24T19:49:23.643Z,1.40
2023-05-24T19:52:28.308Z,1.65
2023-05-24T19:55:33.114Z,1.80
2023-05-24T19:58:38.579Z,1.92
2023-05-24T20:01:43.306Z,1.63
2023-05-24T20:04:48.608Z,1.50
2023-05-24T20:07:53.642Z,1.90
2023-05-24T20:10:58.012Z,2.20
2023-05-24T20:14:02.973Z,1.95
2023-05-24T20:17:07.329Z,1.38
2023-05-24T20:20:12.395Z,1.30
2023-05-24T20:23:17.184Z,1.52
2023-05-24T20:26:22.920Z,1.60
2023-05-24T20:29:27.496Z,1.35
2023-05-24T20:32:32.232Z,1.60
2023-05-24T20:35:37.009Z,1.73
2023-05-24T20:38:42.146Z,1.55
2023-05-24T20:41:49.842Z,1.65
2023-05-24T20:44:54.924Z,1.60
2023-05-24T20:47:59.725Z,1.73
2023-05-24T20:51:04.434Z,1.60
2023-05-24T20:54:09.024Z,1.92
2023-05-24T20:57:14.038Z,1.80
2023-05-24T21:00:19.250Z,1.52
2023-05-24T21:03:24.203Z,1.90
2023-05-24T21:06:29.859Z,1.73
2023-05-24T21:09:35.609Z,1.90
2023-05-24T21:12:40.950Z,1.67
2023-05-24T21:15:45.922Z,2.00
2023-05-24T21:18:53.869Z,1.70
2023-05-24T21:21:58.708Z,1.85
2023-05-24T21:25:04.942Z,1.60
2023-05-24T21:28:10.574Z,1.42
2023-05-24T21:31:15.789Z,1.50
2023-05-24T21:34:22.772Z,1.90
2023-05-24T21:37:27.471Z,1.60
2023-05-24T21:40:32.385Z,1.70
2023-05-24T21:43:42.828Z,1.83
2023-05-24T21:46:47.398Z,1.70
2023-05-24T21:49:52.517Z,1.77
2023-05-24T21:52:59.787Z,1.83
2023-05-24T21:56:04.618Z,1.77
2023-05-24T21:59:09.504Z,1.77
2023-05-24T22:02:20.336Z,1.80
2023-05-24T22:05:38.407Z,1.63
2023-05-24T22:08:43.519Z,1.80
2023-05-24T22:13:31.103Z,2.05
2023-05-24T22:19:57.915Z,2.40
2023-05-24T22:23:05.927Z,2.00
2023-05-24T22:26:17.227Z,2.08
2023-05-24T22:29:21.999Z,2.20
2023-05-24T22:32:28.954Z,1.92
2023-05-24T22:35:33.515Z,1.90
2023-05-24T22:38:39.030Z,2.05
2023-05-24T22:41:43.976Z,1.88
2023-05-24T22:44:57.319Z,2.05
2023-05-24T22:48:03.510Z,1.98
2023-05-24T22:51:09.080Z,2.28
2023-05-24T22:54:14.660Z,2.10
2023-05-24T22:57:21.766Z,1.85
2023-05-24T23:00:26.711Z,2.30
2023-05-24T23:03:31.526Z,2.08
2023-05-24T23:11:48.383Z,1.63
2023-05-24T23:14:54.206Z,2.10
2023-05-24T23:17:58.944Z,1.92
2023-05-24T23:21:03.918Z,2.50
2023-05-24T23:24:14.236Z,2.15
2023-05-24T23:27:20.290Z,1.95
2023-05-24T23:30:24.780Z,2.03
2023-05-24T23:33:29.800Z,2.35
2023-05-24T23:36:34.538Z,2.38
2023-05-24T23:39:39.313Z,2.47
2023-05-24T23:42:44.146Z,2.30
2023-05-24T23:45:49.118Z,2.20
2023-05-24T23:48:53.807Z,1.90
2023-05-24T23:51:58.475Z,2.30
2023-05-24T23:55:03.693Z,2.53
2023-05-24T23:58:08.259Z,2.20
